EGNM/LBA METAR and TAF weather

Enter ICAO airport designator
Station Type Date Time Source
EGNM METAR 2020/09/25 20:50 UTC NOAA

EGNM 252050Z 32018KT CAVOK 07/02 Q1011


Station Type Date Time Source
EGNM Decoded METAR 2020/09/25 20:50 UTC NOAA

Leeds And Bradford, United Kingdom (EGNM) 53-52N 001-39W
Sep 25, 2020 - 04:50 PM EDT / 2020.09.25 2050 UTC
Wind: from the NW (320 degrees) at 21 MPH (18 KT):0
Visibility: greater than 7 mile(s):0
Temperature: 44 F (7 C)
Dew Point: 35 F (2 C)
Relative Humidity: 70%
Pressure (altimeter): 29.85 in. Hg (1011 hPa)
ob: EGNM 252050Z 32018KT CAVOK 07/02 Q1011
cycle: 21

Station Type Date Time Source
EGNM TAF 2020/09/25 18:09 UTC NOAA

TAF TAF EGNM 251654Z 2518/2618 32012KT 9999 SCT035 PROB40
TEMPO 2518/2612 32015G25KT
TEMPO 2612/2618 36018G28KT

Example: see airport list